TimePDT,TemperatureF,Dew PointF,Humidity,Sea Level PressureIn,VisibilityMPH,Wind Direction,Wind SpeedMPH,Gust SpeedMPH,PrecipitationIn,Events,Conditions,WindDirDegrees,DateUTC
12:15 AM,35.6,30.2,81,30.22,10.0,Calm,Calm,-,N/A,,Clear,0,2012-10-17 07:15:00
12:35 AM,33.8,28.4,81,30.21,10.0,SW,4.6,-,N/A,,Clear,230,2012-10-17 07:35:00
12:55 AM,37.4,32.0,81,30.21,10.0,South,3.5,-,N/A,,Clear,180,2012-10-17 07:55:00
1:15 AM,35.6,32.0,87,30.22,10.0,Calm,Calm,-,N/A,,Clear,0,2012-10-17 08:15:00
1:35 AM,35.6,32.0,87,30.22,10.0,Calm,Calm,-,N/A,,Clear,0,2012-10-17 08:35:00
1:55 AM,33.8,32.0,93,30.23,10.0,Calm,Calm,-,N/A,,Clear,0,2012-10-17 08:55:00
2:15 AM,32.0,30.2,93,30.23,10.0,Calm,Calm,-,N/A,,Clear,0,2012-10-17 09:15:00
2:35 AM,32.0,32.0,100,30.23,10.0,Calm,Calm,-,N/A,,Clear,0,2012-10-17 09:35:00
2:55 AM,32.0,30.2,93,30.22,10.0,Calm,Calm,-,N/A,,Clear,0,2012-10-17 09:55:00
3:15 AM,32.0,28.4,87,30.22,10.0,Calm,Calm,-,N/A,,Clear,0,2012-10-17 10:15:00
3:35 AM,32.0,28.4,87,30.22,10.0,Calm,Calm,-,N/A,,Clear,0,2012-10-17 10:35:00
3:55 AM,32.0,30.2,93,30.22,10.0,Calm,Calm,-,N/A,,Clear,0,2012-10-17 10:55:00
4:15 AM,32.0,30.2,93,30.21,10.0,Calm,Calm,-,N/A,,Clear,0,2012-10-17 11:15:00
4:35 AM,28.4,28.4,100,30.21,10.0,Calm,Calm,-,N/A,,Clear,0,2012-10-17 11:35:00
4:55 AM,28.4,28.4,100,30.22,1.2,Calm,Calm,-,N/A,,Clear,0,2012-10-17 11:55:00
5:15 AM,30.2,28.4,93,30.23,3.0,Calm,Calm,-,N/A,,Clear,0,2012-10-17 12:15:00
5:35 AM,28.4,28.4,100,30.23,1.2,Calm,Calm,-,N/A,,Clear,0,2012-10-17 12:35:00
5:55 AM,28.4,28.4,100,30.22,5.0,Calm,Calm,-,N/A,,Clear,0,2012-10-17 12:55:00
6:15 AM,26.6,26.6,100,30.22,0.2,Calm,Calm,-,N/A,Fog,Light Freezing Fog,0,2012-10-17 13:15:00
6:35 AM,26.6,26.6,100,30.22,0.2,Calm,Calm,-,N/A,Fog,Light Freezing Fog,0,2012-10-17 13:35:00
6:45 AM,28.4,28.4,100,30.23,10.0,Calm,Calm,-,N/A,,Clear,0,2012-10-17 13:45:00
7:50 AM,28.4,26.6,93,30.25,10.0,Calm,Calm,-,N/A,,Partly Cloudy,0,2012-10-17 14:50:00
8:50 AM,35.6,28.4,75,30.25,10.0,Calm,Calm,-,N/A,,Clear,0,2012-10-17 15:50:00
9:50 AM,46.4,26.6,46,30.26,10.0,North,3.5,-,N/A,,Clear,10,2012-10-17 16:50:00
10:55 AM,53.6,24.8,33,30.26,10.0,NE,4.6,-,N/A,,Clear,40,2012-10-17 17:55:00
11:50 AM,57.2,24.8,29,30.24,10.0,Calm,Calm,-,N/A,,Clear,0,2012-10-17 18:50:00
12:50 PM,62.6,24.8,24,30.22,10.0,North,3.5,-,N/A,,Clear,350,2012-10-17 19:50:00
1:45 PM,66.2,21.2,18,30.19,10.0,North,8.1,-,N/A,,Clear,10,2012-10-17 20:45:00
2:50 PM,69.8,17.6,14,30.18,10.0,North,11.5,-,N/A,,Clear,350,2012-10-17 21:50:00
3:50 PM,69.8,17.6,14,30.18,10.0,NNE,6.9,-,N/A,,Partly Cloudy,20,2012-10-17 22:50:00
4:50 PM,66.2,17.6,15,30.19,10.0,NE,10.4,-,N/A,,Partly Cloudy,40,2012-10-17 23:50:00
5:45 PM,64.4,19.4,18,30.20,10.0,NE,6.9,-,N/A,,Clear,40,2012-10-18 00:45:00
5:55 PM,62.6,21.2,20,30.20,10.0,NE,8.1,-,N/A,,Clear,40,2012-10-18 00:55:00
6:15 PM,59.0,21.2,23,30.21,10.0,NE,4.6,-,N/A,,Clear,40,2012-10-18 01:15:00
6:35 PM,57.2,21.2,25,30.21,10.0,NE,5.8,-,N/A,,Clear,40,2012-10-18 01:35:00
6:55 PM,55.4,19.4,25,30.22,10.0,NE,3.5,-,N/A,,Clear,40,2012-10-18 01:55:00
7:15 PM,53.6,21.2,28,30.22,10.0,ENE,3.5,-,N/A,,Clear,70,2012-10-18 02:15:00
7:35 PM,46.4,19.4,34,30.23,10.0,Calm,Calm,-,N/A,,Clear,0,2012-10-18 02:35:00
7:55 PM,46.4,21.2,37,30.24,10.0,Calm,Calm,-,N/A,,Clear,0,2012-10-18 02:55:00
8:15 PM,44.6,21.2,39,30.25,10.0,Calm,Calm,-,N/A,,Clear,0,2012-10-18 03:15:00
8:35 PM,44.6,23.0,43,30.25,10.0,Calm,Calm,-,N/A,,Clear,0,2012-10-18 03:35:00
8:55 PM,44.6,21.2,39,30.26,10.0,SSE,3.5,-,N/A,,Clear,160,2012-10-18 03:55:00
9:15 PM,41.0,23.0,49,30.26,10.0,Calm,Calm,-,N/A,,Clear,0,2012-10-18 04:15:00
9:35 PM,41.0,21.2,45,30.27,10.0,Calm,Calm,-,N/A,,Clear,0,2012-10-18 04:35:00
9:55 PM,39.2,21.2,49,30.28,10.0,Calm,Calm,-,N/A,,Clear,0,2012-10-18 04:55:00
10:15 PM,39.2,23.0,52,30.28,10.0,Calm,Calm,-,N/A,,Clear,0,2012-10-18 05:15:00
10:35 PM,37.4,19.4,48,30.29,10.0,Calm,Calm,-,N/A,,Clear,0,2012-10-18 05:35:00
10:55 PM,37.4,21.2,52,30.29,10.0,Calm,Calm,-,N/A,,Clear,0,2012-10-18 05:55:00
11:15 PM,35.6,19.4,52,30.29,10.0,Calm,Calm,-,N/A,,Clear,0,2012-10-18 06:15:00
11:35 PM,35.6,19.4,52,30.29,10.0,Calm,Calm,-,N/A,,Clear,0,2012-10-18 06:35:00
11:55 PM,32.0,19.4,60,30.30,10.0,SSE,5.8,-,N/A,,Clear,160,2012-10-18 06:55:00